createdAt,value
2022-09-28T02:49:22.617Z,96.12
2022-09-28T02:53:05.095Z,96.22
2022-09-28T02:55:56.318Z,95.92
2022-09-28T02:56:56.365Z,95.81
2022-09-28T02:57:56.307Z,95.87
2022-09-28T03:00:49.362Z,95.81
2022-09-28T03:01:59.098Z,95.20
2022-09-28T03:02:56.959Z,95.92
2022-09-28T03:05:16.274Z,95.67
2022-09-28T03:06:23.953Z,95.81
2022-09-28T03:07:24.970Z,95.77
2022-09-28T03:11:09.107Z,95.25
2022-09-28T03:12:09.146Z,95.25
2022-09-28T03:13:16.769Z,95.15
2022-09-28T03:17:13.655Z,95.15
2022-09-28T03:18:30.140Z,95.09
2022-09-28T03:19:21.322Z,95.30
2022-09-28T03:20:13.623Z,95.40
2022-09-28T03:25:21.569Z,95.65
2022-09-28T03:26:21.603Z,95.65
2022-09-28T03:27:31.852Z,95.45
2022-09-28T03:28:29.285Z,95.20
2022-09-28T03:29:29.203Z,94.99
2022-09-28T03:30:21.577Z,94.99
2022-09-28T03:31:29.338Z,94.93
2022-09-28T03:34:19.009Z,94.89
2022-09-28T03:35:19.009Z,94.99
2022-09-28T03:36:19.046Z,95.24
2022-09-28T03:37:19.120Z,94.73
2022-09-28T03:38:19.146Z,94.68
2022-09-28T03:39:20.388Z,94.93
2022-09-28T03:40:24.263Z,95.14
2022-09-28T03:41:21.186Z,95.34
2022-09-28T03:42:22.015Z,95.24
2022-09-28T03:43:20.334Z,94.93
2022-09-28T03:44:20.263Z,94.93
2022-09-28T03:45:22.742Z,94.93
2022-09-28T03:46:20.525Z,94.99
2022-09-28T03:47:20.856Z,94.83
2022-09-28T03:48:24.508Z,94.93
2022-09-28T03:49:21.738Z,94.89
2022-09-28T03:50:22.396Z,95.24
2022-09-28T03:51:20.179Z,95.24
2022-09-28T03:52:20.308Z,95.34
2022-09-28T03:53:20.659Z,95.24
2022-09-28T03:54:21.207Z,95.34
2022-09-28T03:55:20.365Z,95.34
2022-09-28T03:56:23.479Z,95.03
2022-09-28T03:57:21.648Z,95.24
2022-09-28T03:58:20.553Z,94.93
2022-09-28T03:59:20.514Z,95.45
2022-09-28T04:00:20.173Z,95.45
2022-09-28T04:01:23.839Z,95.70
2022-09-28T04:02:20.385Z,95.86
2022-09-28T04:03:20.334Z,95.45
2022-09-28T04:04:21.188Z,95.59
2022-09-28T04:05:20.287Z,95.65
2022-09-28T04:06:22.181Z,95.80
2022-09-28T04:07:20.893Z,95.75
2022-09-28T04:08:20.215Z,96.11
2022-09-28T04:09:20.495Z,95.80
2022-09-28T04:10:20.112Z,96.31
2022-09-28T04:11:20.591Z,95.96
2022-09-28T04:12:20.031Z,96.31
2022-09-28T04:13:20.454Z,96.31
2022-09-28T04:14:22.233Z,96.31
2022-09-28T04:15:20.322Z,96.42
2022-09-28T04:16:20.059Z,96.42
2022-09-28T04:17:21.897Z,96.93
2022-09-28T04:18:20.603Z,96.72
2022-09-28T04:19:20.305Z,96.93
2022-09-28T04:20:21.032Z,96.83
2022-09-28T04:21:20.048Z,96.93
2022-09-28T04:22:20.048Z,96.83
2022-09-28T04:23:20.543Z,96.72
2022-09-28T04:24:19.744Z,96.83
2022-09-28T04:25:20.716Z,97.34
2022-09-28T04:26:19.896Z,96.78
2022-09-28T04:27:19.875Z,96.72
2022-09-28T04:28:19.843Z,96.83
2022-09-28T04:29:19.949Z,96.93
2022-09-28T04:30:19.919Z,96.93
2022-09-28T04:31:19.751Z,96.99
2022-09-28T04:32:20.650Z,96.89
2022-09-28T04:33:19.927Z,96.68
2022-09-28T04:34:19.787Z,96.68
2022-09-28T04:35:19.604Z,96.73
2022-09-28T04:36:19.684Z,96.58
2022-09-28T04:37:19.702Z,96.43
2022-09-28T04:38:30.831Z,96.43
2022-09-28T04:39:21.643Z,96.84
2022-09-28T04:40:19.690Z,96.22
2022-09-28T04:41:19.567Z,96.22
2022-09-28T04:42:19.673Z,96.12
2022-09-28T04:43:19.540Z,95.81
2022-09-28T04:44:19.597Z,96.12
2022-09-28T04:45:19.518Z,95.81
2022-09-28T04:46:19.574Z,95.30
2022-09-28T04:47:19.601Z,95.30
2022-09-28T04:48:19.483Z,95.81
2022-09-28T04:49:19.664Z,95.46
2022-09-28T04:50:19.527Z,95.77
2022-09-28T04:51:19.553Z,95.71
2022-09-28T04:52:19.473Z,95.67
2022-09-28T04:53:19.499Z,95.61
2022-09-28T04:54:19.621Z,95.25
2022-09-28T04:55:19.375Z,95.25
2022-09-28T04:56:19.434Z,95.25
2022-09-28T04:57:19.400Z,94.95
2022-09-28T04:58:19.597Z,94.84
2022-09-28T04:59:19.361Z,94.18
2022-09-28T05:00:19.328Z,93.98
2022-09-28T05:01:20.304Z,93.98
2022-09-28T05:02:19.583Z,93.77
2022-09-28T05:03:19.681Z,94.08
2022-09-28T05:04:22.385Z,93.67
2022-09-28T05:05:21.457Z,93.51
2022-09-28T05:06:19.320Z,93.51
2022-09-28T05:07:19.406Z,93.71
2022-09-28T05:08:20.187Z,93.82
2022-09-28T05:09:19.356Z,93.40
2022-09-28T05:10:19.499Z,94.02
2022-09-28T05:11:19.236Z,93.61
2022-09-28T05:12:19.217Z,93.82
2022-09-28T05:13:19.211Z,93.71
2022-09-28T05:14:19.194Z,93.57
2022-09-28T05:15:19.181Z,93.61
2022-09-28T05:16:19.240Z,93.61
2022-09-28T05:17:19.198Z,93.92
2022-09-28T05:18:19.131Z,94.12
2022-09-28T05:19:19.139Z,94.12
2022-09-28T05:20:20.897Z,94.12
2022-09-28T05:21:19.118Z,94.33
2022-09-28T05:22:19.141Z,94.95
2022-09-28T05:23:19.166Z,94.84
2022-09-28T05:24:19.084Z,95.01
2022-09-28T05:25:19.030Z,94.59
2022-09-28T05:26:19.088Z,94.08
2022-09-28T05:27:19.127Z,93.87
2022-09-28T05:28:19.102Z,93.57
2022-09-28T05:29:19.059Z,93.57
2022-09-28T05:30:19.732Z,93.26
2022-09-28T05:31:19.101Z,93.57
2022-09-28T05:32:19.051Z,93.05
2022-09-28T05:33:19.025Z,93.26
2022-09-28T05:34:19.165Z,93.26
2022-09-28T05:35:18.982Z,93.16
2022-09-28T05:36:19.009Z,93.40
2022-09-28T05:37:19.688Z,93.16
2022-09-28T05:38:18.969Z,93.46
2022-09-28T05:39:19.582Z,93.36
2022-09-28T05:40:18.991Z,93.36
2022-09-28T05:41:18.922Z,93.46
2022-09-28T05:42:19.038Z,93.26
2022-09-28T05:43:19.038Z,93.26
2022-09-28T05:44:19.080Z,92.95
2022-09-28T05:45:18.881Z,93.32
2022-09-28T05:46:19.638Z,92.80
2022-09-28T05:47:18.885Z,92.40
2022-09-28T05:48:18.894Z,92.60
2022-09-28T05:49:18.867Z,92.50
2022-09-28T05:50:19.855Z,92.80
2022-09-28T05:51:18.899Z,92.85
2022-09-28T05:52:18.819Z,92.60
2022-09-28T05:53:18.857Z,92.60
2022-09-28T05:54:18.934Z,92.23
2022-09-28T05:55:18.843Z,92.04
2022-09-28T05:56:18.752Z,92.04
2022-09-28T05:57:18.825Z,91.84
2022-09-28T05:58:18.880Z,91.47
2022-09-28T05:59:18.703Z,91.37
2022-09-28T06:00:18.875Z,90.65
2022-09-28T06:01:18.759Z,91.88
2022-09-28T06:02:18.753Z,90.85
2022-09-28T06:03:18.797Z,91.06
2022-09-28T06:04:19.036Z,91.57
2022-09-28T06:05:18.799Z,91.57
2022-09-28T06:06:19.147Z,90.95
2022-09-28T06:07:18.771Z,91.41
2022-09-28T06:08:18.698Z,91.41
2022-09-28T06:09:21.627Z,92.33
2022-09-28T06:10:19.369Z,92.85
2022-09-28T06:11:18.715Z,92.33
2022-09-28T06:12:18.747Z,92.08
2022-09-28T06:13:19.406Z,91.78
2022-09-28T06:14:18.727Z,91.57
2022-09-28T06:15:18.753Z,91.37
2022-09-28T06:16:18.782Z,91.16
2022-09-28T06:17:18.843Z,90.65
2022-09-28T06:18:19.857Z,91.53
2022-09-28T06:19:18.819Z,91.67
2022-09-28T06:20:18.688Z,91.22
2022-09-28T06:21:18.982Z,91.33
2022-09-28T06:22:19.085Z,91.27
2022-09-28T06:23:18.946Z,90.81
2022-09-28T06:24:18.781Z,90.85
2022-09-28T06:25:18.719Z,90.81
2022-09-28T06:26:18.783Z,90.40
2022-09-28T06:27:18.827Z,89.52
2022-09-28T06:28:18.853Z,89.89
2022-09-28T06:29:19.571Z,89.58
2022-09-28T06:30:19.554Z,89.69
2022-09-28T06:31:18.795Z,89.58
2022-09-28T06:32:18.963Z,89.69
2022-09-28T06:33:18.569Z,89.27
2022-09-28T06:34:18.687Z,89.37
2022-09-28T06:35:19.023Z,89.78
2022-09-28T06:36:18.661Z,89.27
2022-09-28T06:37:18.581Z,89.37
2022-09-28T06:38:19.308Z,89.48
2022-09-28T06:39:18.656Z,89.69
2022-09-28T06:40:18.565Z,89.89
2022-09-28T06:41:18.623Z,90.40
2022-09-28T06:42:18.478Z,89.69
2022-09-28T06:43:18.935Z,89.69
2022-09-28T06:44:18.961Z,90.40
2022-09-28T06:45:18.510Z,91.06
2022-09-28T06:46:20.052Z,91.27
2022-09-28T06:47:19.020Z,90.85
2022-09-28T06:48:18.359Z,91.06
2022-09-28T06:49:19.546Z,91.33
2022-09-28T06:50:18.933Z,91.22
2022-09-28T06:51:19.674Z,91.22
2022-09-28T06:52:19.096Z,90.50
2022-09-28T06:53:19.471Z,90.30
2022-09-28T06:54:33.354Z,90.20
2022-09-28T06:55:20.685Z,90.20
2022-09-28T06:56:18.677Z,89.58
2022-09-28T06:57:18.625Z,89.78
2022-09-28T06:58:40.610Z,89.37
2022-09-28T06:59:18.257Z,89.72
2022-09-28T07:00:18.258Z,89.69
2022-09-28T07:01:18.338Z,89.58
2022-09-28T07:02:18.270Z,89.42
2022-09-28T07:03:18.280Z,89.37
2022-09-28T07:04:18.922Z,89.27
2022-09-28T07:05:18.342Z,89.58
2022-09-28T07:06:18.330Z,89.58
2022-09-28T07:07:18.128Z,89.27
2022-09-28T07:08:18.182Z,89.27
2022-09-28T07:09:33.064Z,89.37
2022-09-28T07:10:20.328Z,89.89
2022-09-28T07:11:18.614Z,89.69
2022-09-28T07:12:18.363Z,89.27
2022-09-28T07:13:44.716Z,89.37
2022-09-28T07:14:35.473Z,89.78
2022-09-28T07:15:20.191Z,90.20
2022-09-28T07:16:21.563Z,90.03
2022-09-28T07:17:18.360Z,91.00
2022-09-28T07:18:18.341Z,91.00
2022-09-28T07:19:18.515Z,91.31
2022-09-28T07:20:19.640Z,91.51
2022-09-28T07:21:27.676Z,91.31
2022-09-28T07:22:21.434Z,91.61
2022-09-28T07:23:20.133Z,91.99
2022-09-28T07:24:20.224Z,91.57
2022-09-28T07:25:18.328Z,91.42
2022-09-28T07:26:21.002Z,91.33
2022-09-28T07:27:20.108Z,90.77
2022-09-28T07:28:17.963Z,90.46
2022-09-28T07:29:17.860Z,90.46
2022-09-28T07:30:18.878Z,89.13
2022-09-28T07:31:18.457Z,90.05
2022-09-28T07:32:18.007Z,90.97
2022-09-28T07:33:17.866Z,90.26
2022-09-28T07:34:17.875Z,88.17
2022-09-28T07:35:17.861Z,85.03
2022-09-28T07:36:19.675Z,85.54
2022-09-28T07:37:18.040Z,87.18
2022-09-28T07:38:17.793Z,87.90
2022-09-28T07:39:17.792Z,88.14
2022-09-28T07:40:19.837Z,87.63
2022-09-28T07:41:18.123Z,88.59
2022-09-28T07:42:17.943Z,87.88
2022-09-28T07:43:17.999Z,89.31
2022-09-28T07:44:18.003Z,89.76
2022-09-28T07:45:18.288Z,90.18
2022-09-28T07:46:18.432Z,90.80
2022-09-28T07:47:17.675Z,90.24
2022-09-28T07:48:17.790Z,89.52
2022-09-28T07:49:18.343Z,90.55
2022-09-28T07:50:17.810Z,90.81
2022-09-28T07:51:19.072Z,90.50
2022-09-28T07:52:17.633Z,90.40
2022-09-28T07:53:20.538Z,89.54
2022-09-28T07:54:18.962Z,90.87
2022-09-28T07:55:18.346Z,90.52
2022-09-28T07:56:18.400Z,89.90
2022-09-28T07:57:17.632Z,88.27
2022-09-28T07:58:19.215Z,88.98
2022-09-28T07:59:17.770Z,88.43
2022-09-28T08:00:17.528Z,88.53
2022-09-28T08:01:17.698Z,88.80
2022-09-28T08:02:18.281Z,88.29
2022-09-28T08:03:21.075Z,89.06
2022-09-28T08:04:19.608Z,87.73
2022-09-28T08:05:19.795Z,86.30
2022-09-28T08:06:21.808Z,85.89
2022-09-28T08:07:20.464Z,84.46
2022-09-28T08:08:21.681Z,84.46
2022-09-28T08:09:19.316Z,84.56
2022-09-28T08:10:17.517Z,84.25
2022-09-28T08:11:17.593Z,84.66
2022-09-28T08:12:17.752Z,85.85
2022-09-28T08:13:19.169Z,86.22
2022-09-28T08:14:18.771Z,83.36
2022-09-28T08:15:17.821Z,84.58
2022-09-28T08:16:17.852Z,82.75
2022-09-28T08:17:17.463Z,83.09
2022-09-28T08:18:17.509Z,82.54
2022-09-28T08:19:17.650Z,81.01
2022-09-28T08:20:17.339Z,81.62
2022-09-28T08:21:17.503Z,83.46
2022-09-28T08:22:17.982Z,82.37
2022-09-28T08:23:17.643Z,82.00
2022-09-28T08:24:17.443Z,81.24
2022-09-28T08:25:17.542Z,81.35
2022-09-28T08:26:17.576Z,79.16
2022-09-28T08:27:17.362Z,78.86
2022-09-28T08:28:17.875Z,78.45
2022-09-28T08:29:17.531Z,78.86
2022-09-28T08:30:17.372Z,79.27
2022-09-28T08:31:18.407Z,79.27
2022-09-28T08:32:17.411Z,79.74
2022-09-28T08:33:17.261Z,78.92
2022-09-28T08:34:17.394Z,77.73
2022-09-28T08:35:17.440Z,77.22
2022-09-28T08:36:18.336Z,77.42
2022-09-28T08:37:17.248Z,77.12
2022-09-28T08:38:17.410Z,77.15
2022-09-28T08:39:17.262Z,78.28
2022-09-28T08:40:17.477Z,78.69
2022-09-28T08:41:17.212Z,77.76
2022-09-28T08:42:17.217Z,78.08
2022-09-28T08:43:17.227Z,80.22
2022-09-28T08:44:17.356Z,79.20
2022-09-28T08:45:17.266Z,80.22
2022-09-28T08:46:17.287Z,81.45
2022-09-28T08:47:17.276Z,80.05
2022-09-28T08:48:17.178Z,80.19
2022-09-28T08:49:30.952Z,81.08
2022-09-28T08:50:19.441Z,80.57
2022-09-28T08:51:17.250Z,78.93
2022-09-28T08:52:17.346Z,79.41
2022-09-28T08:53:17.298Z,80.12
2022-09-28T08:54:18.175Z,80.12
2022-09-28T08:55:17.828Z,80.12
2022-09-28T08:56:22.393Z,79.88
2022-09-28T08:57:17.489Z,79.16
2022-09-28T08:58:17.219Z,78.14
2022-09-28T08:59:17.636Z,77.49
2022-09-28T09:00:17.310Z,77.29
2022-09-28T09:01:17.297Z,78.11
2022-09-28T09:02:17.434Z,77.56
2022-09-28T09:03:18.511Z,75.96
2022-09-28T09:04:19.290Z,76.57
2022-09-28T09:05:22.979Z,75.96
2022-09-28T09:06:19.634Z,77.19
2022-09-28T09:07:20.195Z,75.85
2022-09-28T09:08:18.065Z,76.88
2022-09-28T09:09:18.611Z,76.67
2022-09-28T09:10:18.666Z,75.45
2022-09-28T09:11:20.689Z,76.78
2022-09-28T09:12:17.822Z,77.86
2022-09-28T09:13:18.937Z,76.06
2022-09-28T09:14:17.920Z,76.88
2022-09-28T09:15:22.845Z,77.39
2022-09-28T09:16:18.666Z,77.70
2022-09-28T09:17:17.744Z,77.08
2022-09-28T09:18:20.153Z,77.49
2022-09-28T09:19:18.648Z,78.24
2022-09-28T09:20:16.956Z,79.78
2022-09-28T09:21:16.973Z,79.06
2022-09-28T09:22:17.073Z,79.47
2022-09-28T09:23:16.838Z,80.19
2022-09-28T09:24:16.911Z,80.19
2022-09-28T09:25:16.949Z,80.12
2022-09-28T09:26:21.765Z,80.94
2022-09-28T09:27:17.812Z,81.56
2022-09-28T09:28:18.192Z,82.41
2022-09-28T09:29:16.770Z,82.10
2022-09-28T09:30:20.712Z,83.68
2022-09-28T09:31:20.725Z,83.27
2022-09-28T09:32:19.993Z,82.86
2022-09-28T09:33:17.407Z,82.65
2022-09-28T09:34:16.991Z,82.55
2022-09-28T09:35:17.862Z,83.47
2022-09-28T09:36:17.311Z,83.17
2022-09-28T09:37:17.649Z,82.24
2022-09-28T09:38:17.662Z,83.17
2022-09-28T09:39:17.903Z,82.04
2022-09-28T09:40:16.954Z,82.04
2022-09-28T09:41:16.782Z,83.68
2022-09-28T09:42:16.705Z,83.17
2022-09-28T09:43:16.579Z,82.35
2022-09-28T09:44:16.770Z,82.24
2022-09-28T09:45:16.631Z,82.35
2022-09-28T09:46:16.691Z,83.54
2022-09-28T09:47:16.565Z,83.54
2022-09-28T09:48:16.749Z,83.03
2022-09-28T09:49:16.708Z,82.41
2022-09-28T09:50:16.735Z,82.31
2022-09-28T09:51:17.573Z,83.54
2022-09-28T09:52:16.444Z,83.54
2022-09-28T09:53:16.541Z,82.41
2022-09-28T09:54:16.688Z,82.31
2022-09-28T09:55:16.495Z,82.41
2022-09-28T09:56:16.504Z,83.33
2022-09-28T09:57:16.855Z,83.54
2022-09-28T09:58:16.520Z,83.70
2022-09-28T09:59:17.578Z,82.78
2022-09-28T10:00:16.837Z,82.84
2022-09-28T10:01:16.627Z,82.03
2022-09-28T10:02:16.526Z,82.95
2022-09-28T10:03:16.634Z,82.29
2022-09-28T10:04:16.439Z,83.01
2022-09-28T10:05:16.517Z,81.74
2022-09-28T10:06:16.480Z,81.71
2022-09-28T10:07:16.324Z,83.14
2022-09-28T10:08:16.458Z,81.87
2022-09-28T10:09:16.408Z,81.98
2022-09-28T10:10:16.295Z,80.14
2022-09-28T10:11:16.536Z,79.69
2022-09-28T10:12:16.422Z,80.78
2022-09-28T10:13:16.449Z,81.45
2022-09-28T10:14:16.371Z,79.66
2022-09-28T10:15:16.564Z,79.11
2022-09-28T10:16:16.289Z,79.25
2022-09-28T10:17:22.879Z,77.27
2022-09-28T10:18:16.981Z,75.34
2022-09-28T10:19:16.275Z,77.55
2022-09-28T10:20:16.402Z,77.14
2022-09-28T10:21:16.186Z,77.03
2022-09-28T10:22:16.496Z,76.83
2022-09-28T10:23:16.243Z,77.61
2022-09-28T10:24:16.175Z,77.10
2022-09-28T10:25:16.216Z,77.64
2022-09-28T10:26:16.174Z,77.34
2022-09-28T10:27:17.314Z,76.32
2022-09-28T10:28:29.081Z,75.92
2022-09-28T10:29:17.402Z,77.34
2022-09-28T10:30:16.202Z,77.44
2022-09-28T10:31:16.252Z,75.81
2022-09-28T10:32:17.253Z,76.32
2022-09-28T10:33:17.384Z,77.14
2022-09-28T10:34:16.318Z,75.30
2022-09-28T10:36:53.160Z,76.42
2022-09-28T10:37:53.186Z,75.47
2022-09-28T10:38:53.010Z,76.18
2022-09-28T10:39:53.692Z,75.27
2022-09-28T10:40:53.104Z,74.65
2022-09-28T10:41:53.093Z,75.06
2022-09-28T10:42:54.489Z,73.33
2022-09-28T10:43:58.176Z,74.04
2022-09-28T10:44:57.674Z,74.96
2022-09-28T10:46:48.946Z,75.06
2022-09-28T10:48:55.947Z,75.27
2022-09-28T10:48:59.386Z,74.25
2022-09-28T10:50:03.500Z,74.01
2022-09-28T10:51:00.437Z,73.40
2022-09-28T10:52:03.732Z,71.19
2022-09-28T10:53:16.061Z,69.93
2022-09-28T10:54:51.594Z,70.68
2022-09-28T10:55:55.842Z,72.48
2022-09-28T10:56:14.362Z,71.56
2022-09-28T10:57:10.302Z,68.01
2022-09-28T10:58:05.462Z,70.01
2022-09-28T10:59:06.539Z,68.99
2022-09-28T11:01:55.302Z,70.41
2022-09-28T11:02:25.918Z,69.77
2022-09-28T11:16:12.753Z,70.72
2022-09-28T11:17:19.555Z,69.76
2022-09-28T11:18:32.456Z,72.14
2022-09-28T11:19:29.158Z,73.27
2022-09-28T11:20:16.963Z,72.86
2022-09-28T11:21:19.288Z,71.39
2022-09-28T11:22:18.935Z,71.39
2022-09-28T11:23:25.771Z,71.09
2022-09-28T11:24:34.346Z,70.85
2022-09-28T11:25:31.360Z,70.82
2022-09-28T11:26:55.231Z,69.19
2022-09-28T11:27:38.228Z,67.73
2022-09-28T11:28:42.465Z,70.24
2022-09-28T11:46:08.305Z,66.31
2022-09-28T11:50:32.181Z,66.35
2022-09-28T11:56:56.415Z,67.68
2022-09-28T11:58:15.897Z,67.27
2022-09-28T11:59:01.739Z,65.58
2022-09-28T12:02:51.259Z,64.83
2022-09-28T12:09:13.313Z,66.11
2022-09-28T12:12:42.669Z,66.28
2022-09-28T12:14:41.226Z,65.97
2022-09-28T12:15:25.749Z,63.54
2022-09-28T12:20:53.510Z,64.29
2022-09-28T12:21:53.779Z,66.08
2022-09-28T12:23:28.638Z,67.30
2022-09-28T12:23:58.879Z,66.89
2022-09-28T12:24:54.570Z,65.03
2022-09-28T12:26:23.685Z,64.32
2022-09-28T12:27:08.975Z,63.48
2022-09-28T12:27:57.651Z,63.40
2022-09-28T12:29:02.576Z,64.93
2022-09-28T12:30:01.350Z,64.51
2022-09-28T12:30:57.908Z,66.35
2022-09-28T12:31:55.936Z,67.49
2022-09-28T12:32:58.766Z,66.50
2022-09-28T12:34:05.667Z,66.77
2022-09-28T12:34:57.934Z,67.79
2022-09-28T12:36:03.493Z,67.49
2022-09-28T12:37:05.452Z,69.86
2022-09-28T12:37:59.161Z,69.53
2022-09-28T12:41:57.075Z,69.12
2022-09-28T12:42:25.987Z,68.27
2022-09-28T12:43:24.847Z,67.66
2022-09-28T12:44:18.078Z,67.55
2022-09-28T12:46:09.754Z,67.73
2022-09-28T12:46:16.115Z,65.89
2022-09-28T12:47:43.475Z,66.07
2022-09-28T12:48:35.452Z,64.20
2022-09-28T12:50:13.774Z,65.02
2022-09-28T12:50:44.030Z,65.91
2022-09-28T12:51:11.122Z,62.32
2022-09-28T12:52:08.940Z,63.51
2022-09-28T12:53:41.700Z,62.63
2022-09-28T12:54:09.286Z,62.76
2022-09-28T12:55:42.926Z,62.16
2022-09-28T12:56:36.819Z,62.66
2022-09-28T12:57:09.322Z,63.55
2022-09-28T12:58:09.715Z,63.58
2022-09-28T12:59:08.886Z,64.83
2022-09-28T13:00:08.782Z,63.71
2022-09-28T13:01:08.814Z,64.01
2022-09-28T13:02:08.776Z,64.42
2022-09-28T13:03:09.495Z,64.52
2022-09-28T13:04:44.960Z,63.74
2022-09-28T13:07:22.048Z,64.45
2022-09-28T13:07:44.786Z,65.97
2022-09-28T13:09:07.171Z,66.61
2022-09-28T13:10:19.637Z,67.76
2022-09-28T13:10:41.750Z,69.66
2022-09-28T13:12:18.227Z,69.86
2022-09-28T13:12:48.599Z,70.78
2022-09-28T13:14:09.707Z,70.51
2022-09-28T13:16:45.510Z,72.04
2022-09-28T13:17:54.039Z,71.26
2022-09-28T13:19:20.602Z,72.89
2022-09-28T13:20:18.962Z,74.93
2022-09-28T13:21:18.974Z,73.50
2022-09-28T13:22:18.984Z,75.04
2022-09-28T13:23:18.947Z,75.27
2022-09-28T13:24:31.084Z,75.89
2022-09-28T13:24:48.264Z,75.48
2022-09-28T13:26:19.171Z,77.11
2022-09-28T13:26:47.620Z,75.89
2022-09-28T13:27:46.380Z,77.08
2022-09-28T13:29:20.425Z,77.11
2022-09-28T13:29:46.707Z,76.32
2022-09-28T13:31:20.027Z,74.79
2022-09-28T13:31:46.661Z,75.51
2022-09-28T13:32:47.585Z,75.85
2022-09-28T13:33:46.361Z,75.44
2022-09-28T13:35:20.020Z,76.16
2022-09-28T13:35:48.747Z,75.65
2022-09-28T13:37:18.970Z,77.28
2022-09-28T13:37:47.061Z,76.97
2022-09-28T13:38:46.429Z,77.31
2022-09-28T13:39:46.633Z,77.01
2022-09-28T13:41:18.729Z,77.31
2022-09-28T13:41:46.610Z,75.68
2022-09-28T13:43:19.698Z,76.19
2022-09-28T13:43:46.488Z,77.48
2022-09-28T13:44:46.575Z,77.18
2022-09-28T13:45:46.323Z,78.09
2022-09-28T13:46:46.237Z,77.75
2022-09-28T13:47:46.175Z,77.34
2022-09-28T13:48:46.176Z,76.43
2022-09-28T13:49:46.163Z,75.82
2022-09-28T13:50:46.368Z,76.84
2022-09-28T13:51:46.263Z,75.48
2022-09-28T13:52:46.112Z,75.88
2022-09-28T13:54:14.788Z,74.66
2022-09-28T13:54:46.327Z,75.95
2022-09-28T13:55:46.413Z,75.85
2022-09-28T13:56:46.077Z,77.17
2022-09-28T13:57:46.053Z,75.23
2022-09-28T13:58:46.044Z,75.23
2022-09-28T14:00:19.949Z,75.85
2022-09-28T14:01:32.787Z,77.48
2022-09-28T14:01:46.774Z,76.25
2022-09-28T14:02:47.045Z,75.64
2022-09-28T14:03:46.123Z,75.44
2022-09-28T14:04:46.626Z,73.50
2022-09-28T14:05:45.955Z,73.10
2022-09-28T14:06:48.772Z,73.81
2022-09-28T14:08:18.914Z,73.91
2022-09-28T14:08:46.418Z,73.81
2022-09-28T14:09:46.368Z,76.15
2022-09-28T14:10:46.060Z,77.37
2022-09-28T14:12:18.489Z,77.03
2022-09-28T14:13:22.234Z,75.30
2022-09-28T14:14:18.490Z,74.99
2022-09-28T14:14:46.185Z,71.02
2022-09-28T14:16:19.473Z,70.41
2022-09-28T14:17:18.612Z,67.76
2022-09-28T14:17:45.909Z,69.59
2022-09-28T14:19:18.405Z,69.09
2022-09-28T14:20:20.206Z,67.59
2022-09-28T14:21:19.566Z,67.90
2022-09-28T14:22:18.310Z,67.59
2022-09-28T14:23:18.623Z,66.23
2022-09-28T14:24:18.440Z,66.54
2022-09-28T14:25:20.561Z,65.59
2022-09-28T14:26:12.269Z,66.03
2022-09-28T14:27:19.312Z,66.54
2022-09-28T14:28:19.279Z,66.13
2022-09-28T14:29:19.468Z,66.33
2022-09-28T14:29:45.908Z,64.81
2022-09-28T14:31:18.405Z,65.31
2022-09-28T14:32:19.625Z,66.41
2022-09-28T14:32:46.957Z,66.33
2022-09-28T14:34:17.024Z,66.23
2022-09-28T14:35:13.493Z,66.30
2022-09-28T14:36:04.972Z,66.10
2022-09-28T14:36:50.503Z,65.89
2022-09-28T14:39:29.832Z,65.80
2022-09-28T14:40:09.837Z,67.02
2022-09-28T14:40:52.211Z,67.02
2022-09-28T14:42:34.591Z,67.49
2022-09-28T14:46:40.270Z,64.87
2022-09-28T14:48:18.111Z,64.67
2022-09-28T14:48:42.331Z,67.52
2022-09-28T14:52:16.031Z,67.52
2022-09-28T14:52:24.257Z,68.24
2022-09-28T14:53:39.425Z,66.20
2022-09-28T14:55:22.867Z,66.64
2022-09-28T14:56:13.608Z,65.01
2022-09-28T14:56:47.568Z,63.68
2022-09-28T14:57:36.043Z,63.68
2022-09-28T14:59:10.705Z,65.52
2022-09-28T15:00:19.455Z,65.42
2022-09-28T15:00:38.336Z,63.38
2022-09-28T15:01:51.240Z,64.84
2022-09-28T15:02:32.741Z,63.79
2022-09-28T15:03:33.240Z,63.41
2022-09-28T15:04:35.855Z,63.10
2022-09-28T15:05:35.212Z,63.82
2022-09-28T15:06:39.515Z,63.92
2022-09-28T15:08:09.234Z,63.92
2022-09-28T15:08:53.236Z,63.92
2022-09-28T15:10:00.888Z,65.04
2022-09-28T15:10:34.893Z,64.84
2022-09-28T15:11:44.319Z,66.27
2022-09-28T15:13:53.155Z,64.90
2022-09-28T15:14:44.198Z,64.22
2022-09-28T15:15:08.387Z,65.11
2022-09-28T15:16:04.592Z,64.70
2022-09-28T15:17:15.241Z,63.92
2022-09-28T15:18:18.116Z,62.90
2022-09-28T15:19:02.498Z,64.02
2022-09-28T15:20:03.696Z,64.12
2022-09-28T15:21:04.890Z,64.43
2022-09-28T15:22:13.814Z,64.46
2022-09-28T15:23:20.931Z,65.07
2022-09-28T15:24:01.138Z,65.37
2022-09-28T15:28:41.679Z,65.72
2022-09-28T15:30:21.502Z,66.64
2022-09-28T15:30:44.064Z,65.31
2022-09-28T15:34:34.602Z,64.87
2022-09-28T15:38:51.300Z,66.00
2022-09-28T15:39:51.475Z,66.44
2022-09-28T15:40:58.146Z,66.50
2022-09-28T15:41:52.185Z,65.62
2022-09-28T15:42:55.905Z,64.78
2022-09-28T15:43:52.256Z,65.28
2022-09-28T15:45:18.622Z,66.03
2022-09-28T15:48:21.406Z,66.07
2022-09-28T15:49:12.553Z,64.84
2022-09-28T15:50:38.002Z,66.68
2022-09-28T15:55:29.037Z,64.67
2022-09-28T16:05:57.192Z,67.52
2022-09-28T16:06:58.204Z,68.95
2022-09-28T16:07:56.361Z,68.84
2022-09-28T16:09:06.862Z,69.49
2022-09-28T16:10:03.062Z,70.89
2022-09-28T16:10:57.735Z,69.86
2022-09-28T16:15:00.806Z,71.91
2022-09-28T16:15:21.672Z,73.67
2022-09-28T16:16:29.155Z,73.06
2022-09-28T16:17:18.188Z,72.24
2022-09-28T16:18:12.226Z,71.46
2022-09-28T16:24:54.590Z,70.27
2022-09-28T16:26:20.195Z,70.54
2022-09-28T16:28:33.650Z,73.74
2022-09-28T16:33:04.069Z,75.14
2022-09-28T16:34:50.078Z,74.43
2022-09-28T16:38:29.938Z,75.38
2022-09-28T16:43:39.231Z,77.26
2022-09-28T16:51:04.453Z,77.70
2022-09-28T16:55:40.471Z,78.35
2022-09-28T17:00:22.690Z,78.56
2022-09-28T17:04:30.666Z,79.17
2022-09-28T17:09:00.146Z,79.48
2022-09-28T17:17:52.379Z,78.97
2022-09-28T17:20:30.732Z,78.56
2022-09-28T17:21:31.047Z,78.97
2022-09-28T17:22:30.886Z,78.97
2022-09-28T17:23:30.812Z,78.15
2022-09-28T17:24:30.682Z,79.07
2022-09-28T17:25:30.723Z,79.27
2022-09-28T17:26:30.599Z,79.89
2022-09-28T17:27:30.612Z,79.79
2022-09-28T17:28:30.660Z,79.89
2022-09-28T17:29:30.799Z,80.19
2022-09-28T17:30:39.275Z,81.12
2022-09-28T17:31:33.898Z,80.19
2022-09-28T17:32:32.115Z,79.99
2022-09-28T17:33:32.533Z,79.99
2022-09-28T17:34:40.909Z,79.48
2022-09-28T17:36:14.411Z,79.38
2022-09-28T17:36:36.865Z,79.27
2022-09-28T17:37:34.104Z,79.17
2022-09-28T17:40:33.959Z,79.79
2022-09-28T17:41:33.975Z,79.79
2022-09-28T17:42:35.064Z,79.89
2022-09-28T17:43:35.334Z,78.97
2022-09-28T17:44:34.962Z,79.89
2022-09-28T17:45:35.023Z,79.58
2022-09-28T17:46:34.945Z,79.79
2022-09-28T17:47:34.793Z,79.99
2022-09-28T17:48:34.750Z,79.99
2022-09-28T17:49:34.718Z,80.51
2022-09-28T17:50:35.721Z,79.99
2022-09-28T17:51:34.914Z,79.27
2022-09-28T17:52:35.099Z,79.48
2022-09-28T17:53:34.744Z,79.79
2022-09-28T17:54:35.734Z,79.89
2022-09-28T17:55:34.821Z,80.09
2022-09-28T17:56:34.689Z,80.85
2022-09-28T17:57:34.766Z,81.36
2022-09-28T17:58:34.627Z,81.81
2022-09-28T17:59:34.779Z,81.40
2022-09-28T18:00:34.854Z,82.01
2022-09-28T18:01:34.987Z,82.01
2022-09-28T18:02:35.254Z,82.12
2022-09-28T18:03:34.687Z,82.22
2022-09-28T18:04:51.142Z,81.81
2022-09-28T18:05:37.316Z,80.99
2022-09-28T18:06:35.303Z,81.29
2022-09-28T18:07:34.914Z,81.60
2022-09-28T18:08:35.001Z,81.81
2022-09-28T18:09:55.663Z,81.71
2022-09-28T18:10:38.028Z,81.43
2022-09-28T18:11:34.861Z,82.15
2022-09-28T18:12:34.941Z,81.95
2022-09-28T18:13:34.561Z,82.53
2022-09-28T18:14:34.848Z,82.12
2022-09-28T18:15:34.905Z,82.42
2022-09-28T18:16:35.263Z,82.32
2022-09-28T18:17:34.954Z,82.42
2022-09-28T18:18:34.614Z,82.32
2022-09-28T18:19:34.516Z,82.15
2022-09-28T18:20:34.581Z,82.12
2022-09-28T18:21:34.966Z,82.42
2022-09-28T18:22:34.824Z,82.12
2022-09-28T18:23:34.609Z,82.93
2022-09-28T18:24:35.453Z,83.14
2022-09-28T18:25:35.406Z,82.22
2022-09-28T18:26:34.591Z,82.32
2022-09-28T18:27:34.535Z,83.04
2022-09-28T18:28:34.426Z,83.14
2022-09-28T18:29:34.538Z,83.65
2022-09-28T18:30:34.547Z,83.55
2022-09-28T18:31:34.432Z,83.65